Aviation Digital Data Service (ADDS)

Output produced by METARs form (0033 UTC 19 December 2014)
found at http://aviationweather.gov/adds/metars/
 
KGSP 182339Z 1900/1924 21003KT P6SM BKN060 OVC200 
     FM190300 34004KT P6SM SCT060 BKN200 
     FM191300 03005KT P6SM BKN200